createdAt,value
2022-08-17T00:00:42.830Z,6.13
2022-08-17T00:03:47.468Z,6.15
2022-08-17T00:06:49.772Z,8.32
2022-08-17T00:09:51.657Z,6.03
2022-08-17T00:12:53.883Z,6.10
2022-08-17T00:16:02.859Z,7.50
2022-08-17T00:19:08.776Z,7.35
2022-08-17T00:22:35.027Z,6.25
2022-08-17T00:25:32.715Z,6.05
2022-08-17T00:28:35.342Z,6.68
2022-08-17T00:31:38.637Z,7.35
2022-08-17T00:34:40.373Z,7.05
2022-08-17T00:37:42.419Z,7.00
2022-08-17T00:40:59.271Z,5.93
2022-08-17T00:44:04.306Z,6.43
2022-08-17T00:47:06.264Z,6.75
2022-08-17T00:50:14.107Z,6.75
2022-08-17T00:53:16.767Z,6.78
2022-08-17T00:56:26.272Z,7.25
2022-08-17T00:59:35.214Z,7.07
2022-08-17T01:02:42.310Z,7.28
2022-08-17T01:05:46.297Z,7.13
2022-08-17T01:08:49.969Z,7.90
2022-08-17T01:11:59.741Z,8.35
2022-08-17T01:15:01.544Z,6.78
2022-08-17T01:18:05.609Z,6.38
2022-08-17T01:21:14.233Z,7.03
2022-08-17T01:24:17.081Z,8.70
2022-08-17T01:27:21.184Z,7.30
2022-08-17T01:30:59.004Z,6.97
2022-08-17T01:33:45.228Z,7.85
2022-08-17T01:36:49.475Z,7.22
2022-08-17T01:39:56.129Z,7.47
2022-08-17T01:43:07.461Z,7.60
2022-08-17T01:46:09.721Z,7.47
2022-08-17T01:49:12.916Z,9.65
2022-08-17T01:52:15.552Z,7.90
2022-08-17T01:55:27.220Z,9.40
2022-08-17T01:58:29.595Z,7.05
2022-08-17T02:01:33.793Z,7.18
2022-08-17T02:04:35.611Z,6.70
2022-08-17T02:07:55.970Z,8.50
2022-08-17T02:10:59.331Z,7.43
2022-08-17T02:14:04.074Z,8.93
2022-08-17T02:17:05.931Z,6.97
2022-08-17T02:20:09.771Z,8.77
2022-08-17T02:23:13.092Z,6.45
2022-08-17T02:26:24.055Z,8.02
2022-08-17T02:29:28.481Z,8.77
2022-08-17T02:32:30.392Z,8.38
2022-08-17T02:35:32.339Z,7.35
2022-08-17T02:38:34.314Z,8.10
2022-08-17T02:41:37.327Z,8.55
2022-08-17T02:44:40.257Z,9.10
2022-08-17T02:47:44.349Z,7.97
2022-08-17T02:50:46.340Z,10.40
2022-08-17T02:53:48.230Z,7.53
2022-08-17T02:56:50.063Z,8.23
2022-08-17T02:59:51.755Z,7.53
2022-08-17T03:02:54.073Z,8.52
2022-08-17T03:05:58.063Z,7.90
2022-08-17T03:08:59.760Z,8.30
2022-08-17T03:12:17.993Z,7.63
2022-08-17T03:15:24.889Z,8.93
2022-08-17T03:18:28.077Z,10.52
2022-08-17T03:21:30.085Z,9.20
2022-08-17T03:24:31.800Z,9.75
2022-08-17T03:27:33.706Z,8.25
2022-08-17T03:30:36.805Z,8.10
2022-08-17T03:33:38.502Z,9.75
2022-08-17T03:36:40.338Z,9.15
2022-08-17T03:39:42.883Z,8.55
2022-08-17T03:42:45.007Z,10.30
2022-08-17T03:46:05.837Z,7.30
2022-08-17T03:49:31.463Z,8.00
2022-08-17T03:52:52.042Z,7.47
2022-08-17T03:56:13.299Z,9.00
2022-08-17T04:02:29.111Z,9.52
2022-08-17T04:05:31.144Z,8.13
2022-08-17T04:08:36.243Z,8.02
2022-08-17T04:11:38.831Z,9.82
2022-08-17T04:14:52.827Z,9.65
2022-08-17T04:17:56.240Z,10.55
2022-08-17T04:20:57.964Z,8.82
2022-08-17T04:24:00.688Z,8.48
2022-08-17T04:27:02.440Z,10.75
2022-08-17T04:30:07.293Z,10.25
2022-08-17T04:33:14.086Z,7.45
2022-08-17T04:36:16.268Z,9.98
2022-08-17T04:39:18.050Z,7.82
2022-08-17T04:42:19.923Z,10.25
2022-08-17T04:45:22.073Z,8.63
2022-08-17T04:48:34.764Z,10.02
2022-08-17T04:51:54.536Z,8.65
2022-08-17T04:54:57.374Z,10.00
2022-08-17T04:57:59.265Z,10.32
2022-08-17T05:01:01.549Z,10.00
2022-08-17T05:04:33.119Z,8.65
2022-08-17T05:07:31.551Z,7.63
2022-08-17T05:10:37.351Z,8.30
2022-08-17T05:13:50.311Z,7.65
2022-08-17T05:16:52.244Z,7.47
2022-08-17T05:19:54.369Z,7.32
2022-08-17T05:23:00.314Z,7.53
2022-08-17T05:26:02.401Z,9.32
2022-08-17T05:29:04.190Z,11.07
2022-08-17T05:32:39.173Z,8.30
2022-08-17T05:35:37.789Z,7.82
2022-08-17T05:38:39.833Z,9.38
2022-08-17T05:41:41.611Z,8.45
2022-08-17T05:44:43.384Z,7.15
2022-08-17T05:47:46.920Z,9.02
2022-08-17T05:50:52.445Z,10.35
2022-08-17T05:54:22.247Z,8.80
2022-08-17T05:57:53.478Z,7.93
2022-08-17T06:01:09.218Z,8.38
2022-08-17T06:04:45.519Z,9.90
2022-08-17T06:08:02.913Z,7.32
2022-08-17T06:11:24.624Z,7.50
2022-08-17T06:14:54.376Z,8.60
2022-08-17T06:18:04.078Z,8.32
2022-08-17T06:21:11.677Z,7.50
2022-08-17T06:24:35.243Z,7.07
2022-08-17T06:27:53.702Z,8.95
2022-08-17T06:31:12.684Z,8.52
2022-08-17T06:34:15.161Z,8.48
2022-08-17T06:37:55.951Z,6.72
2022-08-17T06:41:06.440Z,8.18
2022-08-17T06:44:43.262Z,7.63
2022-08-17T06:47:53.239Z,8.00
2022-08-17T06:51:00.926Z,7.68
2022-08-17T06:54:06.529Z,7.60
2022-08-17T06:57:22.364Z,5.95
2022-08-17T07:00:29.616Z,7.85
2022-08-17T07:03:39.837Z,8.70
2022-08-17T07:06:47.148Z,6.10
2022-08-17T07:09:50.689Z,6.45
2022-08-17T07:13:00.906Z,7.05
2022-08-17T07:16:19.785Z,7.18
2022-08-17T07:19:25.728Z,6.40
2022-08-17T07:22:53.570Z,7.40
2022-08-17T07:26:09.238Z,10.25
2022-08-17T07:29:17.568Z,9.35
2022-08-17T07:32:31.538Z,7.07
2022-08-17T07:35:44.884Z,7.70
2022-08-17T07:38:57.729Z,7.60
2022-08-17T07:42:04.521Z,10.55
2022-08-17T07:45:28.662Z,7.18
2022-08-17T07:48:36.604Z,6.40
2022-08-17T07:51:45.850Z,7.45
2022-08-17T07:54:48.531Z,9.15
2022-08-17T07:57:57.457Z,5.65
2022-08-17T08:01:18.529Z,5.82
2022-08-17T08:05:01.450Z,6.13
2022-08-17T08:08:18.722Z,5.53
2022-08-17T08:11:35.853Z,5.80
2022-08-17T08:14:39.822Z,6.55
2022-08-17T08:17:57.632Z,6.18
2022-08-17T08:21:05.386Z,5.38
2022-08-17T08:24:31.459Z,6.70
2022-08-17T08:27:55.262Z,4.97
2022-08-17T08:31:24.359Z,7.72
2022-08-17T08:35:02.141Z,8.03
2022-08-17T08:38:43.199Z,5.45
2022-08-17T08:42:07.971Z,7.68
2022-08-17T08:45:23.664Z,5.03
2022-08-17T08:49:00.922Z,6.35
2022-08-17T08:52:09.223Z,6.77
2022-08-17T08:55:45.461Z,5.60
2022-08-17T08:59:25.464Z,5.43
2022-08-17T09:05:56.372Z,4.93
2022-08-17T09:09:59.510Z,4.93
2022-08-17T09:13:39.109Z,8.77
2022-08-17T09:16:55.340Z,6.65
2022-08-17T09:20:27.319Z,9.77
2022-08-17T09:23:59.865Z,5.03
2022-08-17T09:27:52.921Z,5.40
2022-08-17T09:31:08.075Z,4.88
2022-08-17T09:34:22.304Z,5.60
2022-08-17T09:37:39.297Z,4.30
2022-08-17T09:41:11.336Z,6.72
2022-08-17T09:45:04.831Z,5.07
2022-08-17T09:48:27.613Z,4.20
2022-08-17T09:51:36.621Z,6.25
2022-08-17T09:54:42.414Z,5.97
2022-08-17T09:57:52.234Z,6.80
2022-08-17T10:01:22.726Z,5.30
2022-08-17T10:05:06.819Z,5.57
2022-08-17T10:08:18.030Z,4.97
2022-08-17T10:12:13.113Z,5.47
2022-08-17T10:15:22.602Z,4.50
2022-08-17T10:19:05.869Z,4.47
2022-08-17T10:22:38.924Z,5.65
2022-08-17T10:26:21.415Z,9.05
2022-08-17T10:29:49.603Z,5.05
2022-08-17T10:33:01.967Z,4.93
2022-08-17T10:36:17.777Z,4.85
2022-08-17T10:39:58.673Z,4.97
2022-08-17T10:43:02.533Z,5.88
2022-08-17T10:46:30.216Z,6.03
2022-08-17T10:49:37.967Z,5.00
2022-08-17T10:52:48.735Z,5.38
2022-08-17T10:56:19.473Z,4.93
2022-08-17T10:59:36.453Z,4.15
2022-08-17T11:02:55.380Z,5.60
2022-08-17T11:06:09.544Z,4.43
2022-08-17T11:09:36.741Z,5.20
2022-08-17T11:13:03.963Z,4.15
2022-08-17T11:16:38.376Z,5.22
2022-08-17T11:19:54.913Z,3.90
2022-08-17T11:23:02.952Z,3.85
2022-08-17T11:26:29.784Z,4.68
2022-08-17T11:30:05.405Z,4.15
2022-08-17T11:33:28.937Z,6.80
2022-08-17T11:36:53.361Z,4.43
2022-08-17T11:40:17.313Z,4.03
2022-08-17T11:43:43.054Z,4.10
2022-08-17T11:47:30.117Z,4.00
2022-08-17T11:51:03.737Z,3.88
2022-08-17T11:54:42.324Z,4.05
2022-08-17T11:57:46.248Z,4.38
2022-08-17T12:00:53.159Z,4.97
2022-08-17T12:04:19.786Z,5.88
2022-08-17T12:07:23.349Z,4.15
2022-08-17T12:10:32.351Z,5.80
2022-08-17T12:13:49.151Z,4.10
2022-08-17T12:17:06.626Z,3.97
2022-08-17T12:20:38.567Z,4.25
2022-08-17T12:23:58.221Z,4.43
2022-08-17T12:27:04.323Z,4.47
2022-08-17T12:30:12.119Z,6.50
2022-08-17T12:33:25.665Z,7.53
2022-08-17T12:36:32.814Z,4.28
2022-08-17T12:39:35.478Z,3.88
2022-08-17T12:42:40.398Z,4.85
2022-08-17T12:45:42.549Z,10.52
2022-08-17T12:48:58.898Z,6.28
2022-08-17T12:52:11.512Z,6.95
2022-08-17T12:55:22.519Z,6.25
2022-08-17T12:58:31.859Z,3.97
2022-08-17T13:01:35.142Z,9.70
2022-08-17T13:04:40.064Z,3.97
2022-08-17T13:07:46.790Z,4.40
2022-08-17T13:11:09.915Z,5.70
2022-08-17T13:14:12.101Z,4.43
2022-08-17T13:17:26.883Z,5.25
2022-08-17T13:20:29.387Z,5.53
2022-08-17T13:23:32.271Z,3.65
2022-08-17T13:26:46.311Z,5.70
2022-08-17T13:29:59.544Z,4.40
2022-08-17T13:33:04.942Z,4.30
2022-08-17T13:36:08.817Z,4.85
2022-08-17T13:39:14.119Z,4.60
2022-08-17T13:42:48.085Z,6.05
2022-08-17T13:46:09.176Z,4.80
2022-08-17T13:49:18.080Z,5.47
2022-08-17T13:52:39.560Z,3.88
2022-08-17T13:55:48.847Z,3.97
2022-08-17T13:59:02.763Z,4.68
2022-08-17T14:02:07.229Z,4.10
2022-08-17T14:05:09.212Z,6.80
2022-08-17T14:08:15.588Z,4.00
2022-08-17T14:11:18.388Z,6.55
2022-08-17T14:14:23.161Z,5.57
2022-08-17T14:17:26.913Z,23.17
2022-08-17T14:20:29.067Z,20.40
2022-08-17T14:23:35.179Z,15.57
2022-08-17T14:26:37.077Z,11.45
2022-08-17T14:29:41.252Z,6.60
2022-08-17T14:32:45.420Z,11.60
2022-08-17T14:35:47.257Z,7.85
2022-08-17T14:38:49.470Z,8.38
2022-08-17T14:41:53.059Z,8.98
2022-08-17T14:44:55.873Z,6.65
2022-08-17T14:47:57.820Z,7.93
2022-08-17T14:50:59.776Z,8.15
2022-08-17T14:54:01.671Z,6.47
2022-08-17T14:57:23.283Z,14.60
2022-08-17T15:00:26.880Z,16.27
2022-08-17T15:03:28.780Z,9.65
2022-08-17T15:06:30.575Z,9.50
2022-08-17T15:09:33.585Z,9.63
2022-08-17T15:12:39.427Z,7.30
2022-08-17T15:15:42.293Z,8.52
2022-08-17T15:18:44.191Z,5.13
2022-08-17T15:21:47.152Z,6.10
2022-08-17T15:24:48.917Z,7.70
2022-08-17T15:27:51.138Z,7.32
2022-08-17T15:30:53.317Z,11.35
2022-08-17T15:33:55.300Z,7.38
2022-08-17T15:36:57.126Z,5.88
2022-08-17T15:40:00.777Z,6.63
2022-08-17T15:43:12.944Z,4.90
2022-08-17T15:46:20.951Z,6.15
2022-08-17T15:49:23.152Z,5.75
2022-08-17T15:52:30.171Z,6.78
2022-08-17T15:55:33.469Z,9.20
2022-08-17T15:58:36.901Z,5.50
2022-08-17T16:03:13.157Z,5.00
2022-08-17T16:05:11.118Z,5.78
2022-08-17T16:08:20.687Z,5.10
2022-08-17T16:11:23.470Z,6.10
2022-08-17T16:14:30.247Z,5.25
2022-08-17T16:17:39.867Z,4.85
2022-08-17T16:20:42.757Z,4.35
2022-08-17T16:23:44.491Z,4.25
2022-08-17T16:26:46.290Z,5.22
2022-08-17T16:29:49.814Z,4.53
2022-08-17T16:32:59.811Z,5.73
2022-08-17T16:36:01.600Z,4.00
2022-08-17T16:39:04.796Z,4.00
2022-08-17T16:42:24.501Z,4.28
2022-08-17T16:45:31.376Z,3.88
2022-08-17T16:48:33.072Z,5.22
2022-08-17T16:51:35.719Z,6.05
2022-08-17T16:54:40.555Z,7.32
2022-08-17T16:57:47.534Z,5.63
2022-08-17T17:03:58.472Z,6.38
2022-08-17T17:07:25.862Z,6.05
2022-08-17T17:10:57.525Z,6.13
2022-08-17T17:14:04.406Z,5.25
2022-08-17T17:17:34.177Z,4.53
2022-08-17T17:24:00.463Z,5.20
2022-08-17T17:27:47.369Z,4.75
2022-08-17T17:30:52.548Z,7.22
2022-08-17T17:34:03.985Z,5.50
2022-08-17T17:37:12.556Z,5.43
2022-08-17T17:40:32.971Z,6.22
2022-08-17T17:43:40.551Z,5.13
2022-08-17T17:46:46.950Z,6.72
2022-08-17T17:49:49.504Z,7.00
2022-08-17T17:53:35.207Z,4.90
2022-08-17T17:56:55.265Z,4.68
2022-08-17T18:00:12.870Z,4.53
2022-08-17T18:03:42.719Z,5.53
2022-08-17T18:07:22.871Z,4.97
2022-08-17T18:10:37.171Z,4.80
2022-08-17T18:14:20.670Z,4.70
2022-08-17T18:17:23.779Z,5.05
2022-08-17T18:20:35.941Z,6.05
2022-08-17T18:23:56.099Z,5.35
2022-08-17T18:27:01.018Z,5.18
2022-08-17T18:30:27.391Z,5.25
2022-08-17T18:33:29.216Z,5.15
2022-08-17T18:36:39.900Z,6.22
2022-08-17T18:39:41.708Z,5.35
2022-08-17T18:42:58.408Z,5.30
2022-08-17T18:46:17.229Z,6.63
2022-08-17T18:49:30.780Z,7.22
2022-08-17T18:52:34.100Z,5.40
2022-08-17T18:55:38.071Z,6.50
2022-08-17T18:58:40.279Z,6.75
2022-08-17T19:02:10.175Z,5.38
2022-08-17T19:05:27.441Z,5.60
2022-08-17T19:08:29.234Z,8.23
2022-08-17T19:11:35.407Z,7.47
2022-08-17T19:14:37.379Z,6.85
2022-08-17T19:17:48.348Z,7.05
2022-08-17T19:21:09.929Z,6.25
2022-08-17T19:24:19.292Z,10.15
2022-08-17T19:27:25.616Z,7.00
2022-08-17T19:30:37.072Z,10.07
2022-08-17T19:33:43.728Z,5.93
2022-08-17T19:37:25.590Z,6.90
2022-08-17T19:40:52.869Z,7.03
2022-08-17T19:44:32.808Z,6.75
2022-08-17T19:47:53.897Z,6.97
2022-08-17T19:51:11.287Z,5.90
2022-08-17T19:54:40.601Z,6.93
2022-08-17T19:57:58.321Z,6.20
2022-08-17T20:01:00.301Z,10.00
2022-08-17T20:04:39.397Z,6.85
2022-08-17T20:07:44.678Z,6.75
2022-08-17T20:10:54.954Z,6.15
2022-08-17T20:14:21.956Z,6.97
2022-08-17T20:17:37.859Z,7.90
2022-08-17T20:21:00.020Z,7.10
2022-08-17T20:24:40.426Z,6.88
2022-08-17T20:28:03.835Z,5.57
2022-08-17T20:31:49.963Z,9.18
2022-08-17T20:35:39.993Z,7.97
2022-08-17T20:38:43.493Z,6.47
2022-08-17T20:42:12.509Z,8.40
2022-08-17T20:45:26.590Z,7.97
2022-08-17T20:48:38.689Z,6.75
2022-08-17T20:52:01.324Z,9.60
2022-08-17T20:55:04.392Z,6.88
2022-08-17T20:58:15.150Z,6.90
2022-08-17T21:01:24.365Z,6.72
2022-08-17T21:04:50.561Z,6.80
2022-08-17T21:07:58.100Z,7.65
2022-08-17T21:11:20.968Z,7.32
2022-08-17T21:15:07.881Z,8.05
2022-08-17T21:18:40.321Z,8.65
2022-08-17T21:21:59.153Z,9.27
2022-08-17T21:25:14.734Z,7.68
2022-08-17T21:29:00.997Z,7.25
2022-08-17T21:32:03.259Z,8.82
2022-08-17T21:35:11.101Z,9.85
2022-08-17T21:38:14.503Z,8.93
2022-08-17T21:41:58.240Z,8.10
2022-08-17T21:45:19.993Z,9.32
2022-08-17T21:48:24.927Z,7.07
2022-08-17T21:51:29.074Z,9.68
2022-08-17T21:54:39.894Z,12.00
2022-08-17T21:57:52.906Z,7.40
2022-08-17T22:01:34.383Z,7.50
2022-08-17T22:04:39.285Z,8.50
2022-08-17T22:07:45.712Z,9.57
2022-08-17T22:10:51.258Z,8.85
2022-08-17T22:13:55.312Z,8.88
2022-08-17T22:17:11.066Z,9.77
2022-08-17T22:20:22.090Z,8.85
2022-08-17T22:23:51.150Z,8.88
2022-08-17T22:27:13.058Z,8.93
2022-08-17T22:30:20.041Z,8.70
2022-08-17T22:33:44.661Z,10.65
2022-08-17T22:36:46.329Z,9.70
2022-08-17T22:39:57.832Z,7.75
2022-08-17T22:43:03.584Z,10.80
2022-08-17T22:46:08.668Z,7.90
2022-08-17T22:49:10.493Z,10.90
2022-08-17T22:53:02.119Z,7.00
2022-08-17T22:56:23.590Z,10.55
2022-08-17T22:59:42.516Z,6.95
2022-08-17T23:03:06.447Z,8.05
2022-08-17T23:06:11.187Z,8.38
2022-08-17T23:09:12.955Z,6.53
2022-08-17T23:12:18.418Z,10.30
2022-08-17T23:15:20.254Z,7.22
2022-08-17T23:18:23.545Z,8.30
2022-08-17T23:21:29.757Z,8.23
2022-08-17T23:24:37.768Z,7.93
2022-08-17T23:27:41.762Z,6.97
2022-08-17T23:30:46.651Z,10.48
2022-08-17T23:33:49.693Z,7.45
2022-08-17T23:36:52.420Z,10.43
2022-08-17T23:39:54.695Z,6.57
2022-08-17T23:42:57.993Z,8.68
2022-08-17T23:46:03.964Z,8.02
2022-08-17T23:49:06.663Z,6.78
2022-08-17T23:52:12.477Z,8.38
2022-08-17T23:55:17.111Z,9.05
2022-08-17T23:58:19.063Z,9.93
